Últimos artigos:
MSK144, FT8… using an IC-9700 and WSJT-X
Resolvendo um problema de áudio no GNU Radio
Converter um número Real para o formato binário em vírgula flutuante segundo a Norma IEEE-754
VirtualBox sobre Debian 10 (buster) não encontra dispositivos USB
Falta de som no Morse Runner em Linux?
Touchpad tapping, em Debian Buster (10)
Últimas fotos:
Últimos METARs:
LPAZ 220230Z 09005KT 9999 FEW020 15/13 Q10...
LPFR 220230Z 32007KT 270V020 CAVOK 15/09 Q...
LPHR 220245Z NIL=
LPLA 220200Z /////KT 9999 FEW025 SCT030 19...
LPMA 220230Z 36012G26KT 330V030 9999 SCT01...
LPPD 220230Z 36003KT 9999 FEW025 16/14 Q10...
LPPR 220230Z 34005KT CAVOK 11/10 Q1022=
LPPS 220230Z 03009KT 360V060 9999 FEW015 2...
LPPT 220230Z 34008KT 9999 FEW022 15/12 Q10...
Últimos QSOs:
2021/08/24-22:06 70cm EA8TL (JORGE)
2021/08/24-21:44 2m EA7BW (JUAN)
2021/08/24-21:43 2m CN8JQ (MOHAMED)
2021/08/24-21:42 2m EA8HB (HUGO)
2021/08/24-21:40 2m F4DXV (JEROME)
2021/08/24-21:39 2m EA1FID (PABLO)
  UTC

Fatal error: Allowed memory size of 268435456 bytes exhausted (tried to allocate 16777216 bytes) in /web/htdocs/www.airlomba.net/home/index.php on line 266